Аэропорт
Шоуду (ZBAA)

 ZBAA / PEK

China
CN-11
Пекин
 40.08010, 116.58500  / 116 ft

 ZBAA 190000Z 34003MPS CAVOK 18/09 Q1016 NOSIG
 TAF ZBAA 181501Z 1818/1918 36004MPS CAVOK TX28/1907Z TN11/1821Z

2020 © VATRUS division (Privacy Policy)